createdAt,value
2023-01-03T00:01:07.221Z,92.41
2023-01-03T00:06:39.325Z,92.76
2023-01-03T00:12:00.478Z,92.54
2023-01-03T00:17:04.008Z,91.90
2023-01-03T00:22:05.764Z,92.35
2023-01-03T00:27:07.330Z,91.76
2023-01-03T00:32:08.953Z,92.19
2023-01-03T00:37:10.587Z,91.15
2023-01-03T00:42:12.803Z,91.26
2023-01-03T00:47:14.288Z,90.38
2023-01-03T00:52:15.818Z,91.50
2023-01-03T00:57:17.290Z,90.38
2023-01-03T01:02:20.394Z,90.11
2023-01-03T01:07:21.965Z,89.64
2023-01-03T01:12:23.416Z,89.33
2023-01-03T01:17:24.856Z,89.69
2023-01-03T01:22:26.317Z,90.36
2023-01-03T01:27:27.755Z,91.24
2023-01-03T01:32:30.408Z,91.17
2023-01-03T01:37:31.825Z,91.31
2023-01-03T01:42:51.917Z,92.17
2023-01-03T01:48:00.460Z,92.53
2023-01-03T01:53:09.269Z,92.05
2023-01-03T01:58:12.632Z,91.46
2023-01-03T02:03:14.153Z,91.64
2023-01-03T02:08:16.028Z,92.68
2023-01-03T02:13:52.297Z,93.57
2023-01-03T02:19:12.016Z,93.07
2023-01-03T02:24:38.686Z,93.11
2023-01-03T02:30:04.359Z,93.54
2023-01-03T02:35:53.406Z,92.36
2023-01-03T02:41:04.289Z,93.04
2023-01-03T02:46:36.492Z,93.14
2023-01-03T02:51:47.646Z,93.28
2023-01-03T02:56:56.330Z,94.51
2023-01-03T03:01:59.566Z,94.25
2023-01-03T03:07:07.723Z,94.37
2023-01-03T03:12:28.984Z,94.17
2023-01-03T03:17:30.899Z,94.59
2023-01-03T03:23:10.139Z,94.92
2023-01-03T03:28:34.478Z,94.63
2023-01-03T03:33:48.842Z,94.74
2023-01-03T03:38:50.680Z,95.10
2023-01-03T03:44:16.136Z,95.65
2023-01-03T03:49:37.953Z,98.21
2023-01-03T03:54:44.321Z,98.69
2023-01-03T03:59:52.186Z,97.10
2023-01-03T04:04:59.116Z,95.36
2023-01-03T04:10:00.809Z,95.95
2023-01-03T04:15:03.849Z,95.27
2023-01-03T04:20:05.787Z,96.61
2023-01-03T04:25:07.792Z,97.79
2023-01-03T04:30:11.481Z,96.87
2023-01-03T04:35:12.967Z,95.50
2023-01-03T04:40:15.166Z,95.22
2023-01-03T04:45:17.078Z,95.79
2023-01-03T04:50:18.659Z,94.93
2023-01-03T04:55:20.623Z,95.40
2023-01-03T05:00:22.136Z,94.76
2023-01-03T05:05:23.589Z,94.35
2023-01-03T05:10:25.053Z,94.99
2023-01-03T05:15:28.144Z,95.10
2023-01-03T05:20:48.286Z,93.99
2023-01-03T05:25:51.115Z,95.06
2023-01-03T05:30:53.726Z,94.44
2023-01-03T05:35:55.329Z,94.20
2023-01-03T05:40:56.961Z,95.29
2023-01-03T05:45:58.603Z,96.44
2023-01-03T05:51:00.141Z,97.41
2023-01-03T05:56:06.325Z,96.96
2023-01-03T06:01:11.962Z,96.77
2023-01-03T06:06:15.097Z,95.71
2023-01-03T06:11:19.168Z,96.74
2023-01-03T06:16:39.627Z,96.32
2023-01-03T06:21:41.648Z,96.71
2023-01-03T06:26:43.192Z,96.96
2023-01-03T06:31:44.618Z,97.23
2023-01-03T06:36:46.060Z,97.76
2023-01-03T06:41:47.513Z,96.99
2023-01-03T06:47:07.526Z,97.45
2023-01-03T06:52:32.841Z,98.02
2023-01-03T06:57:34.336Z,98.90
2023-01-03T07:02:35.954Z,98.43
2023-01-03T07:07:37.630Z,98.03
2023-01-03T07:12:57.601Z,96.61
2023-01-03T07:17:59.080Z,97.03
2023-01-03T07:23:00.486Z,97.11
2023-01-03T07:28:06.364Z,97.29
2023-01-03T07:33:11.871Z,96.83
2023-01-03T07:38:13.732Z,97.21
2023-01-03T07:43:33.577Z,97.66
2023-01-03T07:48:35.820Z,97.35
2023-01-03T07:53:38.271Z,97.28
2023-01-03T07:58:41.886Z,97.13
2023-01-03T08:03:43.716Z,96.55
2023-01-03T08:08:45.742Z,95.36
2023-01-03T08:13:47.565Z,95.09
2023-01-03T08:18:49.087Z,93.99
2023-01-03T08:23:50.632Z,94.25
2023-01-03T08:28:52.222Z,93.83
2023-01-03T08:34:01.788Z,94.46
2023-01-03T08:39:09.395Z,92.98
2023-01-03T08:44:11.371Z,92.79
2023-01-03T08:49:13.536Z,92.61
2023-01-03T08:54:15.000Z,92.63
2023-01-03T08:59:16.445Z,92.19
2023-01-03T09:04:18.080Z,92.39
2023-01-03T09:09:19.722Z,93.38
2023-01-03T09:14:21.358Z,93.96
2023-01-03T09:19:23.026Z,94.29
2023-01-03T09:24:24.470Z,94.22
2023-01-03T09:29:25.980Z,93.69
2023-01-03T09:34:27.407Z,92.51
2023-01-03T09:39:28.823Z,89.06
2023-01-03T09:44:30.284Z,85.15
2023-01-03T09:49:32.786Z,80.73
2023-01-03T09:54:58.144Z,76.68
2023-01-03T10:00:19.172Z,75.18
2023-01-03T10:05:42.687Z,73.70
2023-01-03T10:10:58.186Z,72.59
2023-01-03T10:16:11.213Z,70.49
2023-01-03T10:21:50.460Z,66.51
2023-01-03T10:27:14.007Z,63.14
2023-01-03T10:32:27.363Z,61.48
2023-01-03T10:37:29.071Z,59.87
2023-01-03T10:42:34.543Z,58.83
2023-01-03T10:47:36.120Z,56.05
2023-01-03T10:52:40.877Z,54.61
2023-01-03T10:57:48.373Z,53.89
2023-01-03T11:02:51.316Z,52.21
2023-01-03T11:07:59.920Z,52.17
2023-01-03T11:13:01.377Z,52.42
2023-01-03T11:18:05.869Z,51.58
2023-01-03T11:23:49.893Z,51.05
2023-01-03T11:29:15.255Z,50.09
2023-01-03T11:34:48.221Z,50.69
2023-01-03T11:40:21.516Z,51.41
2023-01-03T11:45:32.162Z,51.58
2023-01-03T11:50:54.778Z,52.22
2023-01-03T11:56:22.560Z,52.05
2023-01-03T12:01:39.092Z,52.95
2023-01-03T12:07:47.071Z,52.74
2023-01-03T12:12:58.593Z,56.25
2023-01-03T12:18:06.648Z,59.20
2023-01-03T12:23:30.155Z,60.85
2023-01-03T12:28:48.479Z,61.57
2023-01-03T12:34:11.912Z,61.68
2023-01-03T12:39:33.856Z,62.39
2023-01-03T12:44:40.161Z,62.73
2023-01-03T12:49:50.096Z,63.04
2023-01-03T12:55:19.400Z,64.31
2023-01-03T13:00:57.536Z,64.51
2023-01-03T13:06:05.279Z,64.37
2023-01-03T13:11:30.155Z,66.11
2023-01-03T13:16:34.465Z,65.87
2023-01-03T13:21:54.204Z,66.22
2023-01-03T13:27:17.146Z,66.40
2023-01-03T13:32:21.561Z,67.47
2023-01-03T13:37:43.511Z,67.64
2023-01-03T13:42:45.441Z,67.81
2023-01-03T13:47:52.517Z,68.21
2023-01-03T13:52:58.634Z,68.85
2023-01-03T13:58:00.668Z,69.03
2023-01-03T14:03:24.643Z,69.99
2023-01-03T14:08:50.014Z,70.22
2023-01-03T14:14:00.785Z,70.54
2023-01-03T14:19:22.688Z,70.65
2023-01-03T14:24:27.759Z,70.42
2023-01-03T14:29:29.354Z,71.57
2023-01-03T14:34:34.408Z,71.27
2023-01-03T14:44:36.325Z,71.41
2023-01-03T14:49:43.735Z,73.69
2023-01-03T14:54:49.125Z,73.44
2023-01-03T14:59:52.520Z,73.21
2023-01-03T15:04:57.549Z,72.85
2023-01-03T15:10:17.361Z,73.70
2023-01-03T15:15:23.780Z,74.67
2023-01-03T15:20:37.607Z,75.02
2023-01-03T15:25:41.524Z,75.60
2023-01-03T15:30:49.965Z,76.59
2023-01-03T15:35:54.306Z,77.28
2023-01-03T15:40:56.096Z,77.15
2023-01-03T15:46:11.205Z,78.85
2023-01-03T15:51:12.777Z,79.13
2023-01-03T15:56:19.327Z,79.61
2023-01-03T16:01:22.474Z,79.59
2023-01-03T16:06:24.005Z,80.41
2023-01-03T16:11:33.649Z,80.86
2023-01-03T16:16:38.216Z,81.68
2023-01-03T16:21:39.684Z,81.02
2023-01-03T16:26:41.419Z,82.21
2023-01-03T16:31:44.986Z,82.40
2023-01-03T16:36:47.674Z,82.49
2023-01-03T16:42:08.673Z,82.26
2023-01-03T16:47:15.336Z,82.02
2023-01-03T16:52:25.235Z,84.28
2023-01-03T16:57:28.475Z,85.99
2023-01-03T17:02:30.136Z,85.39
2023-01-03T17:07:31.766Z,85.79
2023-01-03T17:12:33.843Z,87.08
2023-01-03T17:17:35.249Z,88.14
2023-01-03T17:22:36.726Z,88.82
2023-01-03T17:27:38.202Z,89.67
2023-01-03T17:32:39.623Z,88.51
2023-01-03T17:38:13.956Z,88.01
2023-01-03T17:43:03.078Z,86.37
2023-01-03T17:48:23.312Z,86.86
2023-01-03T17:53:25.666Z,86.76
2023-01-03T17:58:35.969Z,86.76
2023-01-03T18:03:38.337Z,87.47
2023-01-03T18:08:40.863Z,86.81
2023-01-03T18:13:42.569Z,87.55
2023-01-03T18:18:44.583Z,88.57
2023-01-03T18:23:46.527Z,89.65
2023-01-03T18:28:48.077Z,90.88
2023-01-03T18:33:49.556Z,93.26
2023-01-03T18:38:52.534Z,91.62
2023-01-03T18:43:54.016Z,91.09
2023-01-03T18:48:55.633Z,90.78
2023-01-03T18:53:58.846Z,90.07
2023-01-03T18:59:17.323Z,91.17
2023-01-03T19:04:18.803Z,89.70
2023-01-03T19:09:22.850Z,89.96
2023-01-03T19:14:24.362Z,89.98
2023-01-03T19:19:25.813Z,90.71
2023-01-03T19:24:39.362Z,90.29
2023-01-03T19:29:41.610Z,90.61
2023-01-03T19:34:43.183Z,90.74
2023-01-03T19:39:44.626Z,90.61
2023-01-03T19:44:47.489Z,89.74
2023-01-03T19:49:49.056Z,89.69
2023-01-03T19:54:50.526Z,90.49
2023-01-03T19:59:56.678Z,91.89
2023-01-03T20:04:58.369Z,91.36
2023-01-03T20:09:59.880Z,92.86
2023-01-03T20:15:06.762Z,94.16
2023-01-03T20:20:10.211Z,94.70
2023-01-03T20:25:27.134Z,94.02
2023-01-03T20:30:31.176Z,93.66
2023-01-03T20:40:54.896Z,93.32
2023-01-03T20:45:58.317Z,93.67
2023-01-03T20:50:59.880Z,93.00
2023-01-03T20:56:01.288Z,91.93
2023-01-03T21:01:05.166Z,91.88
2023-01-03T21:06:18.614Z,95.19
2023-01-03T21:11:30.744Z,94.55
2023-01-03T21:16:36.535Z,95.08
2023-01-03T21:21:38.589Z,96.87
2023-01-03T21:26:40.091Z,97.60
2023-01-03T21:31:43.044Z,99.34
2023-01-03T21:36:44.662Z,97.87
2023-01-03T21:42:04.493Z,97.17
2023-01-03T21:47:05.971Z,96.61
2023-01-03T21:52:07.425Z,98.89
2023-01-03T21:57:08.951Z,100.00
2023-01-03T22:02:31.193Z,98.77
2023-01-03T22:07:32.747Z,98.86
2023-01-03T22:12:34.396Z,97.82
2023-01-03T22:17:36.540Z,96.07
2023-01-03T22:22:39.789Z,96.27
2023-01-03T22:27:42.344Z,95.64
2023-01-03T22:32:44.572Z,96.95
2023-01-03T22:37:46.113Z,97.99
2023-01-03T22:42:47.617Z,97.80
2023-01-03T22:47:49.104Z,96.81
2023-01-03T22:52:50.841Z,96.43
2023-01-03T22:57:52.295Z,97.84
2023-01-03T23:02:53.826Z,97.63
2023-01-03T23:07:55.316Z,98.25
2023-01-03T23:12:59.779Z,98.05
2023-01-03T23:18:01.202Z,97.43
2023-01-03T23:23:02.936Z,100.00
2023-01-03T23:28:04.742Z,100.00
2023-01-03T23:33:06.199Z,100.00
2023-01-03T23:38:07.650Z,100.00
2023-01-03T23:43:10.561Z,99.49
2023-01-03T23:48:12.051Z,97.69
2023-01-03T23:53:13.602Z,96.71
2023-01-03T23:58:15.079Z,96.25
